Map

Track Data

SID SEASON NUMBER BASIN SUBBASIN NAME ISO_TIME NATURE LAT LON WMO_WIND WMO_PRES WMO_AGENCY TRACK_TYPE DIST2LAND LANDFALL IFLAG USA_AGENCY USA_ATCF_ID USA_LAT USA_LON USA_RECORD USA_STATUS USA_WIND USA_PRES USA_SSHS USA_R34_NE USA_R34_SE USA_R34_SW USA_R34_NW USA_R50_NE USA_R50_SE USA_R50_SW USA_R50_NW USA_R64_NE USA_R64_SE USA_R64_SW USA_R64_NW USA_POCI USA_ROCI USA_RMW USA_EYE TOKYO_LAT TOKYO_LON TOKYO_GRADE TOKYO_WIND TOKYO_PRES TOKYO_R50_DIR TOKYO_R50_LONG TOKYO_R50_SHORT TOKYO_R30_DIR TOKYO_R30_LONG TOKYO_R30_SHORT TOKYO_LAND CMA_LAT CMA_LON CMA_CAT CMA_WIND CMA_PRES HKO_LAT HKO_LON HKO_CAT HKO_WIND HKO_PRES NEWDELHI_LAT NEWDELHI_LON NEWDELHI_GRADE NEWDELHI_WIND NEWDELHI_PRES NEWDELHI_CI NEWDELHI_DP NEWDELHI_POCI REUNION_LAT REUNION_LON REUNION_TYPE REUNION_WIND REUNION_PRES REUNION_TNUM REUNION_CI REUNION_RMW REUNION_R34_NE REUNION_R34_SE REUNION_R34_SW REUNION_R34_NW REUNION_R50_NE REUNION_R50_SE REUNION_R50_SW REUNION_R50_NW REUNION_R64_NE REUNION_R64_SE REUNION_R64_SW REUNION_R64_NW BOM_LAT BOM_LON BOM_TYPE BOM_WIND BOM_PRES BOM_TNUM BOM_CI BOM_RMW BOM_R34_NE BOM_R34_SE BOM_R34_SW BOM_R34_NW BOM_R50_NE BOM_R50_SE BOM_R50_SW BOM_R50_NW BOM_R64_NE BOM_R64_SE BOM_R64_SW BOM_R64_NW BOM_ROCI BOM_POCI BOM_EYE BOM_POS_METHOD BOM_PRES_METHOD NADI_LAT NADI_LON NADI_CAT NADI_WIND NADI_PRES WELLINGTON_LAT WELLINGTON_LON WELLINGTON_WIND WELLINGTON_PRES DS824_LAT DS824_LON DS824_STAGE DS824_WIND DS824_PRES TD9636_LAT TD9636_LON TD9636_STAGE TD9636_WIND TD9636_PRES TD9635_LAT TD9635_LON TD9635_WIND TD9635_PRES TD9635_ROCI NEUMANN_LAT NEUMANN_LON NEUMANN_CLASS NEUMANN_WIND NEUMANN_PRES MLC_LAT MLC_LON MLC_CLASS MLC_WIND MLC_PRES USA_GUST BOM_GUST BOM_GUST_PER REUNION_GUST REUNION_GUST_PER USA_SEAHGT USA_SEARAD_NE USA_SEARAD_SE USA_SEARAD_SW USA_SEARAD_NW STORM_SPEED STORM_DIR
1886283N29300 1886 40 NA NA NOT_NAMED 1886-10-10 00:00:00 TS 29.1000 -60.5000 35 hurdat_atl main 1303 1303 O_____________ hurdat_atl AL111886 29.1000 -60.5000 TS 35 0 4 22
1886283N29300 1886 40 NA NA NOT_NAMED 1886-10-10 03:00:00 TS 29.2875 -60.4125 main 1327 1327 P_____________ AL111886 29.2875 -60.4125 TS 35 0 4 23
1886283N29300 1886 40 NA NA NOT_NAMED 1886-10-10 06:00:00 TS 29.5000 -60.3000 35 hurdat_atl main 1351 1351 O_____________ hurdat_atl AL111886 29.5000 -60.3000 TS 35 0 5 26
1886283N29300 1886 40 NA NA NOT_NAMED 1886-10-10 09:00:00 TS 29.7500 -60.1501 main 1386 1386 P_____________ AL111886 29.7500 -60.1501 TS 35 0 6 28
1886283N29300 1886 40 NA NA NOT_NAMED 1886-10-10 12:00:00 TS 30.0000 -60.0000 35 hurdat_atl main 1414 1414 O_____________ hurdat_atl AL111886 30.0000 -60.0000 TS 35 0 5 26
1886283N29300 1886 40 NA NA NOT_NAMED 1886-10-10 15:00:00 TS 30.2150 -59.8849 main 1438 1438 P_____________ AL111886 30.2150 -59.8849 TS 35 0 4 23
1886283N29300 1886 40 NA NA NOT_NAMED 1886-10-10 18:00:00 TS 30.4000 -59.8000 35 hurdat_atl main 1463 1463 O_____________ hurdat_atl AL111886 30.4000 -59.8000 TS 35 0 4 20
1886283N29300 1886 40 NA NA NOT_NAMED 1886-10-10 21:00:00 TS 30.5500 -59.7499 main 1477 1477 P_____________ AL111886 30.5500 -59.7499 TS 37 0 3 16
1886283N29300 1886 40 NA NA NOT_NAMED 1886-10-11 00:00:00 TS 30.7000 -59.7000 40 hurdat_atl main 1497 1490 O_____________ hurdat_atl AL111886 30.7000 -59.7000 TS 40 0 4 20
1886283N29300 1886 40 NA NA NOT_NAMED 1886-10-11 03:00:00 TS 30.9075 -59.6076 main 1490 1471 P_____________ AL111886 30.9075 -59.6076 TS 40 0 4 23
1886283N29300 1886 40 NA NA NOT_NAMED 1886-10-11 06:00:00 TS 31.1000 -59.5000 40 hurdat_atl main 1471 1461 O_____________ hurdat_atl AL111886 31.1000 -59.5000 TS 40 0 3 30
1886283N29300 1886 40 NA NA NOT_NAMED 1886-10-11 09:00:00 TS 31.2075 -59.4074 main 1464 1453 P_____________ AL111886 31.2075 -59.4074 TS 40 0 3 41
1886283N29300 1886 40 NA NA NOT_NAMED 1886-10-11 12:00:00 TS 31.3000 -59.3000 40 hurdat_atl main 1456 1449 O_____________ hurdat_atl AL111886 31.3000 -59.3000 TS 40 0 3 42
1886283N29300 1886 40 NA NA NOT_NAMED 1886-10-11 15:00:00 TS 31.4500 -59.1576 main 1439 1431 P_____________ AL111886 31.4500 -59.1576 TS 40 0 4 40
1886283N29300 1886 40 NA NA NOT_NAMED 1886-10-11 18:00:00 TS 31.6000 -59.0000 40 hurdat_atl main 1435 1428 O_____________ hurdat_atl AL111886 31.6000 -59.0000 TS 40 0 4 46
1886283N29300 1886 40 NA NA NOT_NAMED 1886-10-11 21:00:00 TS 31.7000 -58.8499 main 1431 1421 P_____________ AL111886 31.7000 -58.8499 TS 40 0 3 52
1886283N29300 1886 40 NA NA NOT_NAMED 1886-10-12 00:00:00 TS 31.8000 -58.7000 40 hurdat_atl main 1424 1418 O_____________ hurdat_atl AL111886 31.8000 -58.7000 TS 40 0 3 46
1886283N29300 1886 40 NA NA NOT_NAMED 1886-10-12 03:00:00 TS 31.9349 -58.5574 main 1418 1404 P_____________ AL111886 31.9349 -58.5574 TS 40 0 4 40
1886283N29300 1886 40 NA NA NOT_NAMED 1886-10-12 06:00:00 TS 32.1000 -58.4000 40 hurdat_atl main 1404 1388 O_____________ hurdat_atl AL111886 32.1000 -58.4000 TS 40 0 5 39
1886283N29300 1886 40 NA NA NOT_NAMED 1886-10-12 09:00:00 TS 32.3000 -58.2076 main 1392 1379 P_____________ AL111886 32.3000 -58.2076 TS 40 0 5 40
1886283N29300 1886 40 NA NA NOT_NAMED 1886-10-12 12:00:00 TS 32.5000 -58.0000 40 hurdat_atl main 1379 1373 O_____________ hurdat_atl AL111886 32.5000 -58.0000 TS 40 0 5 43
1886283N29300 1886 40 NA NA NOT_NAMED 1886-10-12 15:00:00 TS 32.6574 -57.8073 main 1367 1361 P_____________ AL111886 32.6574 -57.8073 TS 40 0 5 48
1886283N29300 1886 40 NA NA NOT_NAMED 1886-10-12 18:00:00 TS 32.8000 -57.6000 40 hurdat_atl main 1366 1360 O_____________ hurdat_atl AL111886 32.8000 -57.6000 TS 40 0 5 52
1886283N29300 1886 40 NA NA NOT_NAMED 1886-10-12 21:00:00 TS 32.9500 -57.3574 main 1355 1354 P_____________ AL111886 32.9500 -57.3574 TS 42 0 5 54
1886283N29300 1886 40 NA NA NOT_NAMED 1886-10-13 00:00:00 TS 33.1000 -57.1000 45 hurdat_atl main 1358 1353 O_____________ hurdat_atl AL111886 33.1000 -57.1000 TS 45 0 5 54
1886283N29300 1886 40 NA NA NOT_NAMED 1886-10-13 03:00:00 TS 33.2499 -56.8574 main 1358 1348 P_____________ AL111886 33.2499 -56.8574 TS 45 0 5 54
1886283N29300 1886 40 NA NA NOT_NAMED 1886-10-13 06:00:00 TS 33.4000 -56.6000 45 hurdat_atl main 1353 1348 O_____________ hurdat_atl AL111886 33.4000 -56.6000 TS 45 0 5 57
1886283N29300 1886 40 NA NA NOT_NAMED 1886-10-13 09:00:00 TS 33.5499 -56.3149 main 1358 1348 P_____________ AL111886 33.5499 -56.3149 TS 45 0 6 59
1886283N29300 1886 40 NA NA NOT_NAMED 1886-10-13 12:00:00 TS 33.7000 -56.0000 45 hurdat_atl main 1351 1343 O_____________ hurdat_atl AL111886 33.7000 -56.0000 TS 45 0 6 61
1886283N29300 1886 40 NA NA NOT_NAMED 1886-10-13 15:00:00 TS 33.8499 -55.6649 main 1349 1337 P_____________ AL111886 33.8499 -55.6649 TS 45 0 7 63
1886283N29300 1886 40 NA NA NOT_NAMED 1886-10-13 18:00:00 TS 34.0000 -55.3000 45 hurdat_atl main 1340 1333 O_____________ hurdat_atl AL111886 34.0000 -55.3000 TS 45 0 7 64
1886283N29300 1886 40 NA NA NOT_NAMED 1886-10-13 21:00:00 TS 34.1576 -54.8926 main 1332 1332 P_____________ AL111886 34.1576 -54.8926 TS 45 0 7 66
1886283N29300 1886 40 NA NA NOT_NAMED 1886-10-14 00:00:00 TS 34.3000 -54.5000 45 hurdat_atl main 1336 1329 O_____________ hurdat_atl AL111886 34.3000 -54.5000 TS 45 0 6 66
1886283N29300 1886 40 NA NA NOT_NAMED 1886-10-14 03:00:00 TS 34.4071 -54.2072 main 1336 1330 P_____________ AL111886 34.4071 -54.2072 TS 45 0 5 68
1886283N29300 1886 40 NA NA NOT_NAMED 1886-10-14 06:00:00 TS 34.5000 -53.9000 45 hurdat_atl main 1337 1335 O_____________ hurdat_atl AL111886 34.5000 -53.9000 TS 45 0 6 71
1886283N29300 1886 40 NA NA NOT_NAMED 1886-10-14 09:00:00 TS 34.6072 -53.5025 main 1335 1324 P_____________ AL111886 34.6072 -53.5025 TS 45 0 8 75
1886283N29300 1886 40 NA NA NOT_NAMED 1886-10-14 12:00:00 TS 34.7000 -53.0000 45 hurdat_atl main 1324 1324 O_____________ hurdat_atl AL111886 34.7000 -53.0000 TS 45 0 9 81
1886283N29300 1886 40 NA NA NOT_NAMED 1886-10-14 15:00:00 TS 34.7498 -52.3946 main 1325 1314 P_____________ AL111886 34.7498 -52.3946 TS 45 0 11 85
1886283N29300 1886 40 NA NA NOT_NAMED 1886-10-14 18:00:00 TS 34.8000 -51.7000 45 hurdat_atl main 1318 1310 O_____________ hurdat_atl AL111886 34.8000 -51.7000 TS 45 0 12 82
1886283N29300 1886 40 NA NA NOT_NAMED 1886-10-14 21:00:00 TS 34.9069 -50.9879 main 1314 1307 P_____________ AL111886 34.9069 -50.9879 TS 42 0 12 81
1886283N29300 1886 40 NA NA NOT_NAMED 1886-10-15 00:00:00 TS 35.0000 -50.2000 40 hurdat_atl main 1314 1314 O_____________ hurdat_atl AL111886 35.0000 -50.2000 TS 40 0 14 86
1886283N29300 1886 40 NA NA NOT_NAMED 1886-10-15 03:00:00 TS 35.0154 -49.2921 main 1331 1331 P_____________ AL111886 35.0154 -49.2921 TS 40 0 15 90
1886283N29300 1886 40 NA NA NOT_NAMED 1886-10-15 06:00:00 TS 35.0000 -48.4000 40 hurdat_atl main 1351 1351 O_____________ hurdat_atl AL111886 35.0000 -48.4000 TS 40 0 13 91
1886283N29300 1886 40 NA NA NOT_NAMED 1886-10-15 09:00:00 TS 34.9994 -47.6475 main 1372 1372 P_____________ AL111886 34.9994 -47.6475 TS 37 0 11 90
1886283N29300 1886 40 NA NA NOT_NAMED 1886-10-15 12:00:00 TS 35.0000 -47.0000 35 hurdat_atl main 1390 1390 O_____________ hurdat_atl AL111886 35.0000 -47.0000 TS 35 0 10 90
1886283N29300 1886 40 NA NA NOT_NAMED 1886-10-15 15:00:00 TS 35.0005 -46.4300 main 1409 1409 P_____________ AL111886 35.0005 -46.4300 TS 35 0 9 90
1886283N29300 1886 40 NA NA NOT_NAMED 1886-10-15 18:00:00 TS 35.0000 -45.9000 35 hurdat_atl main 1427 O_____________ hurdat_atl AL111886 35.0000 -45.9000 TS 35 0 9 90

About IBTrACS Database

This database is a web-friendly format of International Best Track Archive for Climate Stewardship (IBTrACS), a global best track data archive curated by NOAA dating back to 1842.

Updated: 2021-10-27